Terminal Aerodrome Forecast
Issued by NWS Caribou, ME

Home | Current Version | Previous Version | Text Only | Print | Product List | Glossary On
Versions: 1 2 3 4 5 6 7 8 9 10 11 12 13 14
000
FTUS41 KCAR 022320
TAFBGR
TAF
KBGR 022320Z 0300/0324 30013G22KT P6SM SCT040 BKN070
     FM030200 29010G20KT P6SM SKC
     FM031200 27008KT P6SM SKC
     FM032200 18006KT P6SM SCT070 BKN120 OVC180=

USA.gov is the U.S. government's official web portal to all federal, state and local government web resources and services.